Time;durP1;ratioP1;P1;durP2;ratioP2;P2;SDS_P1;SDS_P2;PMS_P1;PMS_P2;Temp;Humidity;BMP_temperature;BMP_pressure;BME280_temperature;BME280_humidity;BME280_pressure;Samples;Min_cycle;Max_cycle;Signal;HPM_P1;HPM_P2
2022/05/21 00:00:14;;;;;;;9.52;8.05;;;;;;;17.03;54.75;101841.63;5133390;27;20043;-63
2022/05/21 00:02:41;;;;;;;11.35;8.13;;;;;;;16.98;54.95;101843.84;5133257;27;20408;-63
2022/05/21 00:05:09;;;;;;;10.68;8.27;;;;;;;16.95;55.04;101840.53;5133243;27;20043;-62
2022/05/21 00:07:36;;;;;;;12.48;9.50;;;;;;;16.92;54.97;101836.22;5132877;27;20130;-62
2022/05/21 00:10:03;;;;;;;10.07;8.05;;;;;;;16.89;55.35;101836.47;5132992;27;20485;-63
2022/05/21 00:12:30;;;;;;;11.02;8.50;;;;;;;16.92;55.74;101838.06;5132999;27;20421;-62
2022/05/21 00:14:57;;;;;;;10.63;7.88;;;;;;;16.94;55.58;101836.09;5132921;27;20042;-62
2022/05/21 00:17:24;;;;;;;11.07;8.38;;;;;;;16.94;55.43;101842.38;5110853;28;20047;-62
2022/05/21 00:19:50;;;;;;;12.77;8.10;;;;;;;16.94;55.49;101836.09;5128377;27;20043;-62
2022/05/21 00:22:17;;;;;;;11.48;8.20;;;;;;;16.92;55.81;101846.19;5132677;27;20060;-63
2022/05/21 00:24:44;;;;;;;11.98;7.95;;;;;;;16.92;55.81;101838.91;5132541;27;20413;-62
2022/05/21 00:27:11;;;;;;;10.90;8.27;;;;;;;16.90;56.01;101843.63;5132789;27;20260;-62
2022/05/21 00:29:38;;;;;;;12.27;7.47;;;;;;;16.90;55.58;101837.31;5132812;27;20058;-62
2022/05/21 00:32:05;;;;;;;10.80;8.15;;;;;;;16.90;55.88;101842.75;5132416;27;20043;-62
2022/05/21 00:34:35;;;;;;;9.93;7.38;;;;;;;16.91;56.16;101839.91;5132687;27;20085;-62
2022/05/21 00:37:03;;;;;;;10.57;7.60;;;;;;;16.92;55.89;101840.78;5114299;27;20285;-63
2022/05/21 00:39:29;;;;;;;9.43;7.40;;;;;;;16.92;55.98;101833.50;5114642;27;20039;-63
2022/05/21 00:42:04;;;;;;;10.15;7.05;;;;;;;16.91;56.07;101830.91;5132447;27;20055;-62
2022/05/21 00:44:32;;;;;;;10.70;7.88;;;;;;;16.91;56.30;101828.19;5132410;27;20050;-63
2022/05/21 00:46:59;;;;;;;10.27;7.00;;;;;;;16.92;56.35;101832.63;5133107;27;20053;-63
2022/05/21 00:49:31;;;;;;;10.32;6.53;;;;;;;16.92;56.44;101836.22;5133116;27;20049;-63
2022/05/21 00:52:07;;;;;;;8.55;6.60;;;;;;;16.95;56.17;101835.09;5133297;27;20047;-62
2022/05/21 00:54:57;;;;;;;9.32;6.30;;;;;;;16.94;56.23;101842.38;5132109;27;20047;-63
2022/05/21 00:57:34;;;;;;;9.10;6.13;;;;;;;16.97;56.18;101838.53;5133044;27;20035;-63
2022/05/21 01:00:19;;;;;;;15.32;6.43;;;;;;;16.99;56.15;101836.56;5133339;27;20046;-63
2022/05/21 01:02:49;;;;;;;;;;;;;;;17.00;56.38;101844.59;5133804;28;20051;-62
2022/05/21 01:05:18;;;;;;;11.27;6.97;;;;;;;17.06;56.33;101843.22;5133005;28;19919;-63
2022/05/21 01:07:46;;;;;;;9.88;6.53;;;;;;;17.05;56.11;101850.50;5131740;28;20126;-62
2022/05/21 01:10:16;;;;;;;9.73;6.13;;;;;;;17.06;56.36;101851.34;5132656;28;20039;-62
2022/05/21 01:12:45;;;;;;;10.52;6.10;;;;;;;17.06;56.14;101846.78;5133283;28;20046;-62
2022/05/21 01:15:15;;;;;;;9.05;6.57;;;;;;;17.06;56.31;101846.78;5132513;28;20386;-61
2022/05/21 01:17:42;;;;;;;12.05;5.88;;;;;;;17.08;56.61;101850.25;5132264;28;20040;-61
2022/05/21 01:20:15;;;;;;;10.77;6.30;;;;;;;17.08;56.23;101852.94;5132355;28;20392;-61
2022/05/21 01:22:45;;;;;;;10.32;5.95;;;;;;;17.09;56.79;101846.56;5132215;28;20385;-61
2022/05/21 01:25:21;;;;;;;9.18;5.95;;;;;;;17.10;56.25;101848.28;5113999;28;20058;-62
2022/05/21 01:27:49;;;;;;;8.98;5.80;;;;;;;17.09;56.80;101851.09;5132115;28;20058;-61
2022/05/21 01:30:21;;;;;;;8.77;5.50;;;;;;;17.06;56.43;101852.22;5132185;28;20046;-63
2022/05/21 01:32:49;;;;;;;7.45;5.70;;;;;;;17.05;56.40;101844.19;5132021;28;20047;-62
2022/05/21 01:35:20;;;;;;;8.68;4.95;;;;;;;17.05;56.45;101846.91;5132076;28;20039;-62
2022/05/21 01:37:47;;;;;;;9.48;5.60;;;;;;;17.04;56.47;101842.47;5132182;28;20055;-62
2022/05/21 01:40:17;;;;;;;7.30;5.60;;;;;;;17.05;56.42;101836.91;5132230;28;20039;-66
2022/05/21 01:44:37;;;;;;;7.85;5.78;;;;;;;17.06;56.41;101843.22;5132137;28;20046;-62
2022/05/21 01:45:31;;;;;;;9.10;5.00;;;;;;;17.07;56.72;101843.09;5132281;28;20039;-63
2022/05/21 01:47:57;;;;;;;9.52;5.32;;;;;;;17.07;56.81;101842.22;5132108;28;20047;-62
2022/05/21 01:50:24;;;;;;;8.82;6.38;;;;;;;17.07;56.65;101839.50;5131754;28;20291;-61
2022/05/21 01:52:50;;;;;;;10.20;5.68;;;;;;;17.07;56.79;101840.38;5132164;28;20053;-62
2022/05/21 01:55:21;;;;;;;9.25;5.88;;;;;;;17.07;56.89;101834.94;5132010;28;20115;-62
2022/05/21 01:57:48;;;;;;;8.48;6.00;;;;;;;17.08;56.82;101836.66;5132203;28;20039;-62
2022/05/21 02:00:15;;;;;;;8.65;5.90;;;;;;;17.07;56.71;101845.81;5131928;28;20382;-62
2022/05/21 02:02:42;;;;;;;10.20;5.53;;;;;;;17.07;56.71;101840.38;5132178;28;20051;-62
2022/05/21 02:05:10;;;;;;;11.55;6.07;;;;;;;17.07;56.55;101839.50;5132543;28;20134;-62
2022/05/21 02:07:37;;;;;;;12.15;5.65;;;;;;;17.07;56.74;101836.78;5131931;27;20066;-62
2022/05/21 02:10:04;;;;;;;13.35;5.55;;;;;;;17.07;57.09;101843.09;5098683;28;20054;-62
2022/05/21 02:12:32;;;;;;;10.52;5.85;;;;;;;17.08;57.04;101836.66;5117109;28;20417;-62
2022/05/21 02:15:03;;;;;;;8.00;5.70;;;;;;;17.08;57.05;101833.09;5116154;28;20064;-62
2022/05/21 02:17:29;;;;;;;8.38;5.28;;;;;;;17.09;56.75;101843.84;5116215;28;20123;-62
2022/05/21 02:19:56;;;;;;;8.98;5.90;;;;;;;17.10;57.09;101839.28;5131098;27;20039;-63
2022/05/21 02:22:23;;;;;;;8.57;5.85;;;;;;;17.10;56.82;101834.72;5136139;27;20051;-62
2022/05/21 02:24:53;;;;;;;10.70;6.20;;;;;;;17.12;56.78;101840.88;5136560;27;20497;-62
2022/05/21 02:27:20;;;;;;;11.30;6.28;;;;;;;17.14;56.93;101844.34;5136286;27;20393;-62
2022/05/21 02:29:47;;;;;;;13.02;6.70;;;;;;;17.14;56.78;101841.63;5136161;27;20050;-62
2022/05/21 02:32:14;;;;;;;16.33;7.57;;;;;;;17.17;57.11;101845.06;5135857;27;20054;-62
2022/05/21 02:34:42;;;;;;;12.85;7.15;;;;;;;17.18;57.08;101838.66;5135953;27;20424;-62
2022/05/21 02:39:54;;;;;;;16.45;7.55;;;;;;;17.19;57.00;101837.66;5136393;27;20039;-62
2022/05/21 02:45:08;;;;;;;9.77;7.05;;;;;;;17.18;57.03;101835.94;5135718;27;20040;-62
2022/05/21 02:47:34;;;;;;;12.93;7.35;;;;;;;17.18;57.27;101842.22;5135326;27;20055;-62
2022/05/21 02:50:02;;;;;;;14.02;8.55;;;;;;;17.19;56.94;101835.81;5135324;27;20035;-62
2022/05/21 02:52:28;;;;;;;11.73;7.95;;;;;;;17.20;57.09;101840.25;5135273;27;20061;-62
2022/05/21 02:54:58;;;;;;;11.43;7.32;;;;;;;17.21;57.13;101831.13;5135169;27;20039;-62
2022/05/21 02:57:25;;;;;;;14.13;8.05;;;;;;;17.21;57.36;101838.41;5135599;27;20050;-62
2022/05/21 02:59:52;;;;;;;13.00;7.55;;;;;;;17.19;56.92;101827.66;5134951;27;20047;-62
2022/05/21 03:02:19;;;;;;;16.63;8.52;;;;;;;17.20;57.19;101836.66;5134764;27;20050;-62
2022/05/21 03:04:50;;;;;;;13.73;7.93;;;;;;;17.18;57.05;101839.50;5135024;27;20130;-62
2022/05/21 03:07:17;;;;;;;16.52;8.32;;;;;;;17.19;57.20;101843.09;5134978;27;20054;-63
2022/05/21 03:12:28;;;;;;;11.98;7.30;;;;;;;17.18;57.30;101844.06;5134273;27;20054;-62
2022/05/21 03:14:58;;;;;;;10.13;7.25;;;;;;;17.19;57.07;101849.38;5135019;27;20039;-63
2022/05/21 03:17:28;;;;;;;14.00;7.93;;;;;;;17.20;57.55;101847.53;5133440;27;20059;-62
2022/05/21 03:19:54;;;;;;;13.52;7.43;;;;;;;17.20;57.19;101845.69;5134491;27;20035;-62
2022/05/21 03:22:21;;;;;;;13.10;7.55;;;;;;;17.25;57.49;101842.56;5134255;27;20046;-63
2022/05/21 03:24:51;;;;;;;12.27;7.30;;;;;;;17.26;57.19;101838.88;5134075;27;20044;-62
2022/05/21 03:27:17;;;;;;;11.95;7.57;;;;;;;17.27;57.16;101837.88;5134530;27;20057;-63
2022/05/21 03:29:44;;;;;;;12.80;8.30;;;;;;;17.28;57.36;101842.31;5134633;27;20050;-63
2022/05/21 03:32:13;;;;;;;14.32;7.07;;;;;;;17.29;57.52;101838.63;5134367;27;20051;-63
2022/05/21 03:35:06;;;;;;;11.00;7.35;;;;;;;17.29;57.40;101841.34;5134338;27;20035;-62
2022/05/21 03:37:32;;;;;;;10.60;7.10;;;;;;;17.32;57.28;101838.34;5134013;27;20054;-61
2022/05/21 03:39:59;;;;;;;13.27;7.13;;;;;;;17.29;57.29;101835.91;5134105;27;20084;-62
2022/05/21 03:42:26;;;;;;;12.27;7.57;;;;;;;17.28;56.94;101834.19;5133589;27;20065;-62
2022/05/21 03:44:53;;;;;;;16.10;7.90;;;;;;;17.28;57.17;101837.75;5134185;27;20397;-62
2022/05/21 03:47:19;;;;;;;13.15;7.43;;;;;;;17.29;57.33;101835.91;5134261;27;20055;-61
2022/05/21 03:49:46;;;;;;;13.93;7.93;;;;;;;17.28;57.06;101839.59;5133718;27;20039;-62
2022/05/21 03:52:13;;;;;;;16.60;7.60;;;;;;;17.27;57.50;101843.31;5115777;27;20508;-61
2022/05/21 03:54:41;;;;;;;15.15;7.50;;;;;;;17.24;57.40;101846.28;5133853;27;20481;-62
2022/05/21 03:57:08;;;;;;;15.82;7.55;;;;;;;17.21;57.12;101847.41;5133419;27;20512;-62
2022/05/21 03:59:34;;;;;;;14.00;7.85;;;;;;;17.20;57.01;101855.66;5133574;27;20051;-62
2022/05/21 04:02:01;;;;;;;12.52;7.45;;;;;;;17.18;57.44;101852.22;5133642;27;20047;-61
2022/05/21 04:04:29;;;;;;;11.93;7.55;;;;;;;17.17;57.33;101847.78;5133518;27;20062;-62
2022/05/21 04:06:56;;;;;;;10.90;7.35;;;;;;;17.15;57.27;101851.50;5115551;27;20484;-61
2022/05/21 04:09:22;;;;;;;10.15;7.90;;;;;;;17.16;57.22;101849.63;5133446;27;20485;-61
2022/05/21 04:11:49;;;;;;;14.25;8.43;;;;;;;17.17;57.22;101850.50;5115696;27;20035;-62
2022/05/21 04:14:16;;;;;;;14.38;8.68;;;;;;;17.19;57.31;101848.53;5133193;27;20046;-62
2022/05/21 04:16:42;;;;;;;11.98;7.93;;;;;;;17.21;57.34;101855.53;5133402;27;20046;-61
2022/05/21 04:19:09;;;;;;;15.50;8.27;;;;;;;17.21;57.57;101860.13;5133537;27;20054;-62
2022/05/21 04:21:36;;;;;;;15.55;8.45;;;;;;;17.23;57.54;101866.28;5133632;27;20050;-61
2022/05/21 04:24:03;;;;;;;15.10;8.35;;;;;;;17.25;57.72;101869.72;5133065;27;20044;-62
2022/05/21 04:26:30;;;;;;;15.65;9.43;;;;;;;17.25;57.54;101867.00;5133216;27;20051;-61
2022/05/21 04:28:56;;;;;;;14.70;9.10;;;;;;;17.24;57.44;101873.44;5133113;27;20035;-61
2022/05/21 04:31:23;;;;;;;18.80;9.15;;;;;;;17.25;57.42;101880.59;5133418;27;20054;-62
2022/05/21 04:33:51;;;;;;;12.98;8.82;;;;;;;17.27;57.68;101878.59;5133052;27;20035;-62
2022/05/21 04:36:17;;;;;;;15.00;9.05;;;;;;;17.28;57.57;101880.34;5132856;27;20484;-61
2022/05/21 04:38:50;;;;;;;11.88;7.90;;;;;;;17.30;57.48;101886.50;5133133;27;20043;-62
2022/05/21 04:41:17;;;;;;;19.42;8.40;;;;;;;17.33;57.87;101886.25;5133030;27;20061;-62
2022/05/21 04:43:46;;;;;;;12.32;7.65;;;;;;;17.34;57.70;101891.53;5133026;27;20397;-61
2022/05/21 04:46:15;;;;;;;16.45;8.93;;;;;;;17.37;57.85;101885.00;5132487;27;20039;-61
2022/05/21 04:48:43;;;;;;;17.58;8.07;;;;;;;17.40;57.55;101896.47;5133098;27;20541;-61
2022/05/21 04:51:31;;;;;;;12.43;7.93;;;;;;;17.43;57.85;101889.91;5133236;27;20047;-61
2022/05/21 04:53:59;;;;;;;16.27;8.85;;;;;;;17.44;57.71;101894.34;5133031;27;20039;-61
2022/05/21 04:56:26;;;;;;;17.83;7.88;;;;;;;17.46;57.50;101895.97;5133075;27;20051;-61
2022/05/21 04:59:04;;;;;;;11.13;7.65;;;;;;;17.50;57.73;101893.84;5133374;27;20085;-61
2022/05/21 05:01:31;;;;;;;16.77;8.52;;;;;;;17.53;57.95;101888.16;5133538;28;20448;-61
2022/05/21 05:03:59;;;;;;;17.48;8.45;;;;;;;17.56;57.73;101903.34;5133377;28;20070;-61
2022/05/21 05:06:26;;;;;;;18.58;7.57;;;;;;;17.57;57.41;101897.78;5114494;28;20488;-62
2022/05/21 05:08:52;;;;;;;16.13;7.82;;;;;;;17.58;57.61;101907.66;5132663;28;20050;-62
2022/05/21 05:11:19;;;;;;;15.15;8.18;;;;;;;17.61;57.60;101904.66;5132496;28;20031;-61
2022/05/21 05:13:47;;;;;;;15.55;7.38;;;;;;;17.63;57.76;101904.53;5132325;28;20035;-63
2022/05/21 05:16:13;;;;;;;15.40;7.53;;;;;;;17.66;57.46;101904.28;5132168;28;20050;-62
2022/05/21 05:18:40;;;;;;;16.63;8.00;;;;;;;17.67;57.54;101895.19;5132426;28;20047;-62
2022/05/21 05:21:06;;;;;;;14.23;7.88;;;;;;;17.69;57.53;101901.34;5132205;28;20048;-61
2022/05/21 05:23:33;;;;;;;16.10;8.85;;;;;;;17.70;57.75;101903.94;5132104;28;20047;-61
2022/05/21 05:26:03;;;;;;;19.33;9.27;;;;;;;17.73;57.68;101903.66;5132602;28;20043;-62
2022/05/21 05:28:30;;;;;;;17.20;8.70;;;;;;;17.74;57.35;101904.53;5132237;28;20054;-61
2022/05/21 05:30:57;;;;;;;15.63;8.85;;;;;;;17.74;57.53;101908.09;5131946;28;20042;-61
2022/05/21 05:33:25;;;;;;;19.42;9.80;;;;;;;17.76;57.68;101911.56;5131964;28;20217;-62
2022/05/21 05:35:53;;;;;;;16.63;8.80;;;;;;;17.78;57.81;101917.72;5131909;28;20047;-62
2022/05/21 05:38:22;;;;;;;22.25;9.95;;;;;;;17.81;57.46;101916.59;5132377;28;20065;-62
2022/05/21 05:40:50;;;;;;;24.63;10.55;;;;;;;17.83;57.89;101919.19;5132455;27;20046;-61
2022/05/21 05:43:19;;;;;;;17.17;10.75;;;;;;;17.86;57.53;101918.97;5136060;27;20043;-61
2022/05/21 05:45:51;;;;;;;21.20;11.30;;;;;;;17.90;57.64;101921.28;5118092;27;20039;-62
2022/05/21 05:48:19;;;;;;;24.15;11.35;;;;;;;17.93;57.88;101921.03;5136116;27;20053;-62
2022/05/21 05:50:53;;;;;;;23.83;11.68;;;;;;;17.98;57.71;101920.63;5136106;27;20099;-61
2022/05/21 05:53:19;;;;;;;20.52;12.02;;;;;;;18.01;57.71;101923.97;5117495;27;20043;-63
2022/05/21 05:55:47;;;;;;;21.58;11.80;;;;;;;18.02;57.75;101928.41;5135713;27;20400;-61
2022/05/21 06:00:59;;;;;;;20.00;11.73;;;;;;;18.06;57.60;101938.03;5135857;27;20039;-63
2022/05/21 06:03:26;;;;;;;21.65;11.77;;;;;;;18.08;57.24;101933.31;5135712;27;20497;-62
2022/05/21 06:05:54;;;;;;;22.40;11.98;;;;;;;18.08;57.64;101927.00;5135977;27;20039;-62
2022/05/21 06:08:20;;;;;;;20.30;10.82;;;;;;;18.09;57.51;101936.91;5135793;27;20039;-62
2022/05/21 06:10:49;;;;;;;20.55;11.23;;;;;;;18.09;57.20;101931.47;5135707;27;20050;-61
2022/05/21 06:13:15;;;;;;;23.42;11.77;;;;;;;18.13;57.71;101934.78;5135775;27;20043;-61
2022/05/21 06:16:08;;;;;;;19.65;12.95;;;;;;;18.14;57.81;101936.50;5135399;27;20389;-62
2022/05/21 06:18:40;;;;;;;23.85;12.90;;;;;;;18.18;57.84;101944.25;5134661;27;20567;-61
2022/05/21 06:21:09;;;;;;;22.05;12.10;;;;;;;18.22;57.86;101944.84;5135214;27;20075;-61
2022/05/21 06:23:36;;;;;;;22.55;12.40;;;;;;;18.26;57.79;101946.31;5131726;27;20051;-61
2022/05/21 06:26:02;;;;;;;21.17;12.43;;;;;;;18.29;57.27;101946.06;5131747;27;20497;-61
2022/05/21 06:28:30;;;;;;;28.02;12.73;;;;;;;18.28;57.42;101945.19;5129332;27;20039;-61
2022/05/21 06:30:57;;;;;;;19.10;12.38;;;;;;;18.30;57.56;101942.34;5131852;27;20405;-61
2022/05/21 06:33:27;;;;;;;22.15;12.77;;;;;;;18.31;57.29;101953.09;5128717;27;20509;-62
2022/05/21 06:36:10;;;;;;;20.98;12.57;;;;;;;18.33;57.42;101948.38;5127287;27;20373;-61
2022/05/21 06:38:38;;;;;;;25.67;14.18;;;;;;;18.39;57.26;101950.56;5130729;27;20043;-61
2022/05/21 06:41:05;;;;;;;20.58;12.75;;;;;;;18.43;57.43;101962.03;5131039;27;20447;-61
2022/05/21 06:43:32;;;;;;;22.80;11.77;;;;;;;18.46;57.20;101960.91;5128501;27;20431;-60
2022/05/21 06:45:58;;;;;;;23.52;12.65;;;;;;;18.48;57.06;101967.94;5134702;27;20031;-61
2022/05/21 06:48:25;;;;;;;25.05;13.10;;;;;;;18.51;57.50;101964.09;5134474;27;20054;-61
2022/05/21 06:50:54;;;;;;;18.60;11.95;;;;;;;18.58;57.21;101970.72;5132599;27;20078;-61
2022/05/21 06:53:21;;;;;;;19.00;12.55;;;;;;;18.64;57.51;101965.69;5132688;27;20038;-62
2022/05/21 06:55:49;;;;;;;22.15;12.57;;;;;;;18.74;57.37;101973.91;5134562;27;20031;-61
2022/05/21 06:58:15;;;;;;;15.25;11.18;;;;;;;18.82;57.42;101967.78;5135142;27;20053;-61
2022/05/21 07:00:43;;;;;;;20.45;11.00;;;;;;;18.86;57.21;101964.66;5135554;27;20046;-61
2022/05/21 07:03:10;;;;;;;19.73;11.30;;;;;;;18.89;56.93;101967.09;5134810;27;20131;-62
2022/05/21 07:08:25;;;;;;;20.95;11.38;;;;;;;18.96;56.67;101964.69;5134788;27;20507;-61
2022/05/21 07:10:52;;;;;;;17.90;10.50;;;;;;;19.02;56.93;101973.19;5134552;27;20043;-62
2022/05/21 07:13:20;;;;;;;24.50;11.93;;;;;;;19.09;56.56;101972.63;5116343;27;20039;-62
2022/05/21 07:15:49;;;;;;;17.55;9.50;;;;;;;19.10;56.22;101967.06;5134608;27;20412;-61
2022/05/21 07:18:17;;;;;;;21.23;10.27;;;;;;;19.12;56.31;101972.34;5134368;27;20039;-62
2022/05/21 07:20:45;;;;;;;19.63;10.52;;;;;;;19.13;56.38;101982.25;5134529;27;20477;-60
2022/05/21 07:23:11;;;;;;;19.60;11.02;;;;;;;19.16;56.05;101976.53;5134173;27;20560;-62
2022/05/21 07:25:40;;;;;;;20.10;10.30;;;;;;;19.17;55.81;101989.16;5134973;27;20366;-62
2022/05/21 07:28:08;;;;;;;21.33;10.70;;;;;;;19.17;56.17;101991.88;5134464;27;20050;-60
2022/05/21 07:30:36;;;;;;;23.02;11.07;;;;;;;19.21;55.83;102004.22;5134832;27;20405;-60
2022/05/21 07:33:03;;;;;;;20.85;10.43;;;;;;;19.22;55.76;102011.38;5134213;27;20051;-60
2022/05/21 07:35:37;;;;;;;20.73;12.15;;;;;;;19.27;55.99;102009.13;5134787;27;20047;-60
2022/05/21 07:38:08;;;;;;;22.42;10.93;;;;;;;19.34;55.80;102000.28;5134419;27;20046;-59
2022/05/21 07:40:36;;;;;;;20.35;11.32;;;;;;;19.42;55.83;102002.31;5135232;27;20065;-59
2022/05/21 07:43:34;;;;;;;17.75;10.13;;;;;;;19.55;55.97;102004.84;5134102;27;22264;-60
2022/05/21 07:46:03;;;;;;;20.45;11.40;;;;;;;19.67;55.77;101998.25;5133892;27;20125;-60
2022/05/21 07:48:30;;;;;;;17.42;10.00;;;;;;;19.82;55.66;101996.84;5134918;27;20051;-60
2022/05/21 07:51:02;;;;;;;15.82;8.57;;;;;;;19.97;55.75;102002.75;5133996;27;20536;-60
2022/05/21 07:53:32;;;;;;;21.15;9.88;;;;;;;20.13;55.70;102002.22;5133006;27;20497;-60
2022/05/21 07:55:59;;;;;;;17.50;9.43;;;;;;;20.31;55.67;102004.09;5133462;27;20055;-60
2022/05/21 07:58:28;;;;;;;22.13;9.38;;;;;;;20.51;55.33;101998.66;5133046;27;20419;-60
2022/05/21 08:00:55;;;;;;;18.58;8.43;;;;;;;20.66;55.10;102004.50;5133103;27;20251;-60
2022/05/21 08:03:24;;;;;;;16.30;7.32;;;;;;;20.81;54.94;101998.47;5132842;27;20054;-60
2022/05/21 08:05:51;;;;;;;15.77;7.45;;;;;;;20.93;54.19;102010.06;5132905;27;20521;-60
2022/05/21 08:08:17;;;;;;;13.23;7.13;;;;;;;21.00;53.95;102011.22;5133123;27;20046;-60
2022/05/21 08:10:45;;;;;;;15.73;6.93;;;;;;;21.09;53.59;102010.31;5133045;27;20043;-60
2022/05/21 08:13:13;;;;;;;16.40;7.38;;;;;;;21.15;53.46;102022.50;5132683;27;20051;-60
2022/05/21 08:15:40;;;;;;;14.82;6.78;;;;;;;21.22;53.25;102009.97;5132782;27;20066;-59
2022/05/21 08:18:07;;;;;;;21.50;8.63;;;;;;;21.30;53.17;102023.78;5132805;27;20043;-60
2022/05/21 08:20:36;;;;;;;17.92;6.72;;;;;;;21.35;52.85;102018.72;5132894;27;20043;-61
2022/05/21 08:28:35;;;;;;;20.05;8.40;;;;;;;21.46;52.03;102026.72;5132781;27;20051;-60
2022/05/21 08:31:01;;;;;;;18.25;9.18;;;;;;;21.58;52.55;102024.69;5133110;27;20493;-60
2022/05/21 08:33:28;;;;;;;16.50;9.93;;;;;;;21.74;52.47;102026.75;5132204;27;20455;-60
2022/05/21 08:35:56;;;;;;;17.02;9.68;;;;;;;21.95;52.46;102019.13;5133133;27;20435;-59
2022/05/21 08:38:22;;;;;;;63.15;13.02;;;;;;;22.12;52.06;102015.56;5132810;27;20066;-61
2022/05/21 08:40:58;;;;;;;84.53;16.40;;;;;;;22.32;52.37;102024.50;5133095;27;20035;-61
2022/05/21 08:44:05;;;;;;;62.22;12.98;;;;;;;22.50;51.82;102011.66;5132663;27;20388;-61
2022/05/21 08:46:45;;;;;;;22.23;9.23;;;;;;;22.64;51.38;102018.44;5132861;27;20047;-62
2022/05/21 08:49:24;;;;;;;15.45;7.20;;;;;;;22.76;51.21;102027.28;5132721;27;20042;-63
2022/05/21 08:52:01;;;;;;;16.70;7.45;;;;;;;22.81;50.27;102027.69;5132416;27;20050;-62
2022/05/21 08:54:43;;;;;;;30.70;7.97;;;;;;;22.86;50.40;102024.47;5132716;27;20035;-62
2022/05/21 08:57:24;;;;;;;10.77;5.60;;;;;;;22.94;50.01;102021.78;5132702;27;20516;-61
2022/05/21 09:00:20;;;;;;;16.30;5.18;;;;;;;23.00;49.44;102032.09;5132309;27;20039;-61
2022/05/21 09:02:48;;;;;;;13.43;7.10;;;;;;;23.06;49.28;102031.47;5132671;27;20043;-61
2022/05/21 09:05:18;;;;;;;16.50;7.95;;;;;;;23.11;48.95;102012.66;5132558;28;20046;-61
2022/05/21 09:08:08;;;;;;;15.35;8.40;;;;;;;23.12;49.26;102008.91;5132502;28;20047;-61
2022/05/21 09:10:55;;;;;;;14.20;7.93;;;;;;;23.11;48.99;102019.00;5132806;28;20489;-61
2022/05/21 09:13:32;;;;;;;17.08;7.45;;;;;;;23.15;49.11;102025.03;5132059;28;20046;-61
2022/05/21 09:18:49;;;;;;;13.43;5.82;;;;;;;23.10;48.23;102014.53;5137147;27;20049;-61
2022/05/21 09:21:22;;;;;;;20.67;7.05;;;;;;;23.02;47.93;102017.22;5136916;27;20035;-61
2022/05/21 09:23:57;;;;;;;11.80;6.00;;;;;;;22.94;48.05;102005.34;5136068;27;20043;-61
2022/05/21 09:26:30;;;;;;;15.13;6.90;;;;;;;22.85;48.29;102009.91;5136723;27;20419;-61
2022/05/21 09:29:20;;;;;;;19.73;6.57;;;;;;;22.80;48.08;102013.13;5136816;27;20047;-61
2022/05/21 09:31:47;;;;;;;18.77;6.70;;;;;;;22.80;48.21;102007.66;5137221;27;20039;-61
2022/05/21 09:34:30;;;;;;;19.75;7.13;;;;;;;22.76;48.20;102008.94;5136735;27;20046;-61
2022/05/21 09:37:00;;;;;;;17.60;6.93;;;;;;;22.71;48.00;102015.94;5136755;27;20035;-60
2022/05/21 09:39:41;;;;;;;14.45;5.95;;;;;;;22.63;48.21;102019.47;5136865;27;20044;-60
2022/05/21 09:45:32;;;;;;;14.77;5.30;;;;;;;22.43;47.42;102012.47;5137054;27;20404;-60
2022/05/21 09:48:01;;;;;;;11.75;5.20;;;;;;;22.37;47.62;102021.31;5136297;27;20039;-60
2022/05/21 09:50:28;;;;;;;9.75;4.95;;;;;;;22.34;47.73;102018.88;5136705;27;20050;-59
2022/05/21 09:52:55;;;;;;;12.73;4.80;;;;;;;22.40;47.73;102026.47;5136821;27;20424;-60
2022/05/21 09:55:29;;;;;;;10.00;5.32;;;;;;;22.47;47.83;102022.06;5136686;27;20050;-60
2022/05/21 09:58:12;;;;;;;17.30;6.68;;;;;;;22.49;47.75;102026.38;5137448;27;20050;-60
2022/05/21 10:00:39;;;;;;;12.55;5.78;;;;;;;22.50;47.47;102025.34;5136385;27;20039;-59
2022/05/21 10:03:09;;;;;;;13.63;6.20;;;;;;;22.47;47.61;102027.56;5136357;27;20039;-60
2022/05/21 10:05:50;;;;;;;10.15;6.63;;;;;;;22.41;47.49;102037.25;5136667;27;20035;-60
2022/05/21 10:11:27;;;;;;;10.38;5.30;;;;;;;22.27;47.31;102023.22;5136394;27;20059;-60
2022/05/21 10:14:03;;;;;;;14.00;6.40;;;;;;;22.29;47.47;102024.78;5135926;27;20054;-61
2022/05/21 10:16:48;;;;;;;17.70;6.45;;;;;;;22.37;47.86;102027.63;5136369;27;20050;-61
2022/05/21 10:19:14;;;;;;;17.33;6.07;;;;;;;22.45;47.48;102032.31;5136540;27;20489;-61
2022/05/21 10:22:19;;;;;;;13.48;5.68;;;;;;;22.40;47.18;102031.94;5136822;27;20285;-60
2022/05/21 10:25:04;;;;;;;10.93;4.72;;;;;;;22.41;47.42;102037.25;5136586;27;20043;-61
2022/05/21 10:28:03;;;;;;;11.25;4.82;;;;;;;22.37;47.11;102046.78;5136222;27;20050;-61
2022/05/21 10:30:54;;;;;;;14.35;6.47;;;;;;;22.31;46.49;102041.09;5136198;27;20054;-61
2022/05/21 10:33:40;;;;;;;13.60;6.70;;;;;;;22.24;46.79;102031.75;5135798;27;20045;-62
2022/05/21 10:36:36;;;;;;;13.68;6.85;;;;;;;22.30;47.14;102026.53;5136152;27;20054;-61
2022/05/21 10:39:23;;;;;;;11.63;6.97;;;;;;;22.48;47.48;102026.53;5135604;27;20393;-60
2022/05/21 10:42:00;;;;;;;12.77;7.53;;;;;;;22.68;47.88;102033.53;5135168;27;20397;-61
2022/05/21 10:44:51;;;;;;;13.77;7.57;;;;;;;22.90;47.57;102025.84;5134601;27;20070;-61
2022/05/21 10:47:44;;;;;;;11.48;5.80;;;;;;;23.08;47.35;102024.81;5114192;28;20757;-60
2022/05/21 10:50:19;;;;;;;11.60;5.32;;;;;;;23.23;46.82;102016.84;5114057;28;20043;-61
2022/05/21 10:53:10;;;;;;;13.32;5.30;;;;;;;23.30;46.73;102011.56;5129402;27;20039;-61
2022/05/21 10:56:05;;;;;;;12.25;5.32;;;;;;;23.36;46.24;102030.09;5134575;27;20719;-61
2022/05/21 10:58:53;;;;;;;12.75;6.68;;;;;;;23.42;46.32;102033.03;5134599;27;20043;-61
2022/05/21 11:01:33;;;;;;;13.02;7.38;;;;;;;23.51;46.26;102041.31;5134493;27;20048;-61
2022/05/21 11:04:12;;;;;;;16.67;6.28;;;;;;;23.63;46.76;102035.38;5134103;27;20059;-61
2022/05/21 11:07:00;;;;;;;12.02;6.75;;;;;;;23.78;46.44;102041.09;5134421;27;20042;-62
2022/05/21 11:10:05;;;;;;;12.73;6.30;;;;;;;23.90;46.37;102037.06;5134083;27;20051;-61
2022/05/21 11:12:57;;;;;;;13.38;5.88;;;;;;;24.01;46.05;102033.13;5084937;27;20051;-62
2022/05/21 11:15:45;;;;;;;12.07;5.90;;;;;;;23.94;45.21;102041.19;5120297;27;20059;-62
2022/05/21 11:18:24;;;;;;;9.65;4.55;;;;;;;23.86;45.09;102041.16;5131029;27;20047;-62
2022/05/21 11:21:03;;;;;;;9.55;4.40;;;;;;;23.76;44.88;102046.75;5132378;27;20049;-62
2022/05/21 11:23:54;;;;;;;11.40;5.63;;;;;;;23.67;45.27;102057.84;5129001;27;20040;-62
2022/05/21 11:26:48;;;;;;;11.00;5.22;;;;;;;23.53;45.35;102061.19;5127751;27;20055;-62
2022/05/21 11:29:35;;;;;;;10.75;5.70;;;;;;;23.41;45.00;102060.63;5132379;27;20046;-62
2022/05/21 11:37:46;;;;;;;9.90;5.60;;;;;;;23.27;45.20;102058.50;5115417;27;20054;-62
2022/05/21 11:40:50;;;;;;;10.35;6.60;;;;;;;23.31;45.52;102051.66;5125470;27;20047;-62
2022/05/21 11:43:19;;;;;;;12.68;6.18;;;;;;;23.36;45.43;102052.03;5111334;27;20077;-61
2022/05/21 11:46:07;;;;;;;15.70;5.85;;;;;;;23.36;44.87;102050.16;5133008;27;20466;-61
2022/05/21 11:48:33;;;;;;;;;;;;;;;23.30;44.78;102045.31;5129985;27;20417;-62
2022/05/21 11:51:19;;;;;;;11.55;6.03;;;;;;;23.28;45.17;102046.50;5130182;27;19919;-62
2022/05/21 11:53:51;;;;;;;12.70;5.38;;;;;;;23.27;45.21;102051.13;5128033;27;20034;-62
2022/05/21 11:56:18;;;;;;;10.85;5.70;;;;;;;23.23;45.36;102044.25;5132558;27;20035;-63
2022/05/21 11:58:59;;;;;;;9.85;4.68;;;;;;;23.18;44.75;102046.63;5131797;27;20035;-61
2022/05/21 12:01:41;;;;;;;9.25;4.53;;;;;;;23.16;44.61;102040.44;5132484;27;20038;-62
2022/05/21 12:04:35;;;;;;;10.15;4.20;;;;;;;23.24;44.81;102035.00;5131671;27;20054;-62
2022/05/21 12:07:05;;;;;;;10.10;3.38;;;;;;;23.41;45.04;102030.47;5133403;27;20108;-62
2022/05/21 12:09:34;;;;;;;10.70;3.20;;;;;;;23.60;44.79;102029.38;5133276;27;20039;-62
2022/05/21 12:12:28;;;;;;;8.43;3.22;;;;;;;23.73;44.42;102025.13;5132712;27;20035;-60